Terminal Aerodrome Forecast
Issued by NWS Birmingham, AL

Home | Current Version | Previous Version | Text Only | Print | Product List | Glossary On
Versions: 1 2 3 4 5 6 7 8 9 10 11 12 13 14 15 16 17 18 19 20 21 22 23 24 25 26 27 28
000
FTUS44 KBMX 281129
TAFBHM
TAF
KBHM 281129Z 2812/2912 12003KT P6SM SCT005 BKN100
      TEMPO 2812/2815 BKN005
     FM281500 12005KT P6SM VCSH BKN020
     FM281900 12007KT P6SM SHRA VCTS OVC050CB
     FM290200 11004KT P6SM OVC050
     FM291000 00000KT 5SM BR BKN010=

USA.gov is the U.S. government's official web portal to all federal, state and local government web resources and services.